Time;durP1;ratioP1;P1;durP2;ratioP2;P2;SDS_P1;SDS_P2;PMS_P1;PMS_P2;Temp;Humidity;BMP_temperature;BMP_pressure;BME280_temperature;BME280_humidity;BME280_pressure;Samples;Min_cycle;Max_cycle;Signal;HPM_P1;HPM_P2
2022/11/07 00:01:59;;;;;;;0.40;0.40;;;;;;;;;;7382708;19;20137;-71
2022/11/07 00:04:28;;;;;;;0.30;0.30;;;;;;;;;;7386017;19;20105;-71
2022/11/07 00:06:53;;;;;;;0.40;0.40;;;;;;;;;;7381623;19;20125;-71
2022/11/07 00:09:19;;;;;;;1.03;0.63;;;;;;;;;;7387505;19;20441;-73
2022/11/07 00:11:44;;;;;;;0.33;0.33;;;;;;;;;;7384057;19;20128;-71
2022/11/07 00:14:13;;;;;;;0.40;0.40;;;;;;;;;;7385031;19;20109;-71
2022/11/07 00:16:39;;;;;;;0.30;0.30;;;;;;;;;;7382959;19;20489;-70
2022/11/07 00:19:04;;;;;;;0.27;0.27;;;;;;;;;;7386885;19;20117;-70
2022/11/07 00:21:29;;;;;;;0.30;0.30;;;;;;;;;;7381726;19;20618;-73
2022/11/07 00:23:56;;;;;;;0.30;0.30;;;;;;;;;;7385919;19;20155;-71
2022/11/07 00:26:21;;;;;;;0.20;0.20;;;;;;;;;;7386078;19;20142;-70
2022/11/07 00:28:47;;;;;;;0.30;0.30;;;;;;;;;;7383690;19;20454;-73
2022/11/07 00:31:13;;;;;;;0.50;0.50;;;;;;;;;;7381169;19;20129;-72
2022/11/07 00:33:39;;;;;;;0.40;0.40;;;;;;;;;;7384150;19;20209;-71
2022/11/07 00:36:06;;;;;;;0.27;0.27;;;;;;;;;;7383928;19;20614;-71
2022/11/07 00:38:31;;;;;;;0.63;0.63;;;;;;;;;;7385399;19;20113;-72
2022/11/07 00:40:58;;;;;;;0.20;0.20;;;;;;;;;;7381436;19;20485;-70
2022/11/07 00:43:24;;;;;;;0.20;0.20;;;;;;;;;;7382518;19;20121;-72
2022/11/07 00:45:50;;;;;;;0.30;0.30;;;;;;;;;;7381763;19;20488;-71
2022/11/07 00:48:15;;;;;;;0.20;0.20;;;;;;;;;;7384922;19;20344;-72
2022/11/07 00:50:40;;;;;;;0.20;0.20;;;;;;;;;;7382507;19;20227;-71
2022/11/07 00:53:06;;;;;;;0.47;0.47;;;;;;;;;;7384486;19;20101;-73
2022/11/07 00:55:32;;;;;;;0.60;0.60;;;;;;;;;;7382783;19;20158;-71
2022/11/07 00:57:58;;;;;;;0.20;0.20;;;;;;;;;;7385646;19;20126;-71
2022/11/07 01:00:23;;;;;;;0.40;0.40;;;;;;;;;;7384215;19;20101;-71
2022/11/07 01:05:09;;;;;;;0.63;0.63;;;;;;;;;;7383035;19;20113;-71
2022/11/07 01:05:33;;;;;;;0.20;0.20;;;;;;;;;;7383359;19;20133;-71
2022/11/07 01:07:59;;;;;;;0.40;0.40;;;;;;;;;;7382047;19;20482;-73
2022/11/07 01:10:24;;;;;;;0.20;0.20;;;;;;;;;;7384320;19;20477;-71
2022/11/07 01:12:49;;;;;;;0.53;0.53;;;;;;;;;;7381670;19;20124;-73
2022/11/07 01:15:15;;;;;;;0.30;0.30;;;;;;;;;;7385137;19;20133;-71
2022/11/07 01:17:40;;;;;;;0.40;0.40;;;;;;;;;;7382813;19;20128;-71
2022/11/07 01:20:06;;;;;;;0.30;0.30;;;;;;;;;;7385055;19;20116;-71
2022/11/07 01:22:31;;;;;;;0.30;0.30;;;;;;;;;;7383544;19;20110;-71
2022/11/07 01:24:56;;;;;;;0.30;0.30;;;;;;;;;;7380889;19;20143;-72
2022/11/07 01:27:22;;;;;;;0.40;0.40;;;;;;;;;;7383394;19;20116;-74
2022/11/07 01:29:47;;;;;;;0.30;0.30;;;;;;;;;;7382718;19;20117;-71
2022/11/07 01:32:12;;;;;;;0.20;0.20;;;;;;;;;;7381559;19;20129;-74
2022/11/07 01:34:38;;;;;;;0.30;0.30;;;;;;;;;;7385192;19;20102;-71
2022/11/07 01:37:03;;;;;;;0.30;0.30;;;;;;;;;;7382149;19;20121;-72
2022/11/07 01:39:28;;;;;;;0.20;0.20;;;;;;;;;;7382128;19;20502;-72
2022/11/07 01:41:54;;;;;;;0.30;0.30;;;;;;;;;;7379851;19;20221;-71
2022/11/07 01:44:19;;;;;;;0.20;0.20;;;;;;;;;;7382479;19;20133;-71
2022/11/07 01:46:46;;;;;;;0.20;0.20;;;;;;;;;;7382915;19;20473;-71
2022/11/07 01:49:15;;;;;;;0.30;0.30;;;;;;;;;;7382745;19;20113;-71
2022/11/07 01:51:45;;;;;;;0.30;0.30;;;;;;;;;;7382484;19;20114;-71
2022/11/07 01:54:12;;;;;;;0.20;0.20;;;;;;;;;;7383406;19;20130;-71
2022/11/07 01:56:39;;;;;;;0.20;0.20;;;;;;;;;;7380481;19;20125;-71
2022/11/07 01:59:05;;;;;;;0.20;0.20;;;;;;;;;;7382756;19;20109;-71
2022/11/07 02:01:30;;;;;;;0.30;0.30;;;;;;;;;;7381113;19;20110;-72
2022/11/07 02:03:56;;;;;;;0.20;0.20;;;;;;;;;;7381920;19;20638;-71
2022/11/07 02:06:28;;;;;;;0.20;0.20;;;;;;;;;;7377666;19;20602;-71
2022/11/07 02:08:54;;;;;;;0.20;0.20;;;;;;;;;;7373337;19;20113;-72
2022/11/07 02:11:20;;;;;;;0.20;0.20;;;;;;;;;;7371814;19;20124;-71
2022/11/07 02:13:45;;;;;;;0.30;0.30;;;;;;;;;;7381893;19;20108;-70
2022/11/07 02:16:11;;;;;;;0.20;0.20;;;;;;;;;;7378236;19;20173;-71
2022/11/07 02:18:38;;;;;;;0.20;0.20;;;;;;;;;;7377776;19;20108;-71
2022/11/07 02:21:11;;;;;;;0.20;0.20;;;;;;;;;;7377892;19;20511;-71
2022/11/07 02:23:46;;;;;;;0.30;0.30;;;;;;;;;;7375018;19;20164;-72
2022/11/07 02:26:12;;;;;;;0.20;0.20;;;;;;;;;;7377634;19;20490;-71
2022/11/07 02:28:38;;;;;;;0.20;0.20;;;;;;;;;;7375345;19;20110;-73
2022/11/07 02:31:03;;;;;;;0.30;0.30;;;;;;;;;;7372579;19;20139;-71
2022/11/07 02:33:29;;;;;;;0.30;0.30;;;;;;;;;;7378643;19;20218;-71
2022/11/07 02:35:54;;;;;;;0.20;0.20;;;;;;;;;;7369076;19;20197;-71
2022/11/07 02:38:21;;;;;;;0.20;0.20;;;;;;;;;;7378094;19;20121;-71
2022/11/07 02:40:50;;;;;;;0.20;0.20;;;;;;;;;;7373425;19;20117;-73
2022/11/07 02:43:17;;;;;;;0.20;0.20;;;;;;;;;;7370437;19;20121;-71
2022/11/07 02:45:44;;;;;;;0.30;0.30;;;;;;;;;;7376170;19;20153;-73
2022/11/07 02:48:09;;;;;;;0.30;0.30;;;;;;;;;;7374841;19;20152;-71
2022/11/07 02:50:34;;;;;;;0.20;0.20;;;;;;;;;;7376948;19;20477;-71
2022/11/07 02:53:00;;;;;;;0.50;0.50;;;;;;;;;;7373531;19;20121;-71
2022/11/07 02:55:25;;;;;;;0.20;0.20;;;;;;;;;;7376027;19;20132;-73
2022/11/07 02:57:50;;;;;;;0.30;0.30;;;;;;;;;;7376508;19;20257;-71
2022/11/07 03:00:16;;;;;;;0.30;0.30;;;;;;;;;;7376431;19;20184;-72
2022/11/07 03:02:45;;;;;;;0.20;0.20;;;;;;;;;;7366645;19;20109;-72
2022/11/07 03:05:15;;;;;;;0.20;0.20;;;;;;;;;;7371297;19;20125;-71
2022/11/07 03:07:42;;;;;;;0.20;0.20;;;;;;;;;;7379831;19;20146;-71
2022/11/07 03:10:09;;;;;;;0.20;0.20;;;;;;;;;;7380099;19;20105;-71
2022/11/07 03:12:34;;;;;;;0.40;0.40;;;;;;;;;;7380272;19;20134;-71
2022/11/07 03:15:00;;;;;;;0.30;0.30;;;;;;;;;;7379221;19;20121;-71
2022/11/07 03:17:25;;;;;;;0.30;0.30;;;;;;;;;;7383611;19;20583;-71
2022/11/07 03:19:50;;;;;;;0.40;0.40;;;;;;;;;;7379495;19;20555;-71
2022/11/07 03:22:15;;;;;;;0.20;0.20;;;;;;;;;;7380246;19;20118;-72
2022/11/07 03:24:41;;;;;;;0.30;0.30;;;;;;;;;;7380701;19;20125;-71
2022/11/07 03:27:06;;;;;;;0.60;0.60;;;;;;;;;;7379091;19;20145;-72
2022/11/07 03:29:31;;;;;;;0.30;0.30;;;;;;;;;;7386810;19;20580;-71
2022/11/07 03:31:57;;;;;;;0.20;0.20;;;;;;;;;;7382625;19;20118;-71
2022/11/07 03:34:22;;;;;;;0.20;0.20;;;;;;;;;;7388785;19;20129;-70
2022/11/07 03:36:47;;;;;;;0.20;0.20;;;;;;;;;;7385532;19;20142;-72
2022/11/07 03:39:12;;;;;;;0.30;0.30;;;;;;;;;;7387361;19;20125;-71
2022/11/07 03:41:38;;;;;;;0.20;0.20;;;;;;;;;;7382043;19;20109;-71
2022/11/07 03:44:03;;;;;;;0.20;0.20;;;;;;;;;;7388992;19;20147;-73
2022/11/07 03:46:29;;;;;;;0.20;0.20;;;;;;;;;;7384200;19;20693;-71
2022/11/07 03:48:54;;;;;;;0.20;0.20;;;;;;;;;;7388122;19;20145;-71
2022/11/07 03:51:19;;;;;;;0.30;0.30;;;;;;;;;;7386225;19;20535;-71
2022/11/07 03:53:44;;;;;;;0.30;0.30;;;;;;;;;;7385530;19;20128;-71
2022/11/07 03:56:11;;;;;;;0.20;0.20;;;;;;;;;;7384590;19;20527;-71
2022/11/07 03:58:36;;;;;;;0.20;0.20;;;;;;;;;;7379872;19;20165;-71
2022/11/07 04:01:03;;;;;;;1.00;0.50;;;;;;;;;;7383584;19;20150;-71
2022/11/07 04:03:28;;;;;;;0.30;0.30;;;;;;;;;;7382759;19;20117;-71
2022/11/07 04:05:53;;;;;;;0.40;0.40;;;;;;;;;;7383761;19;20131;-71
2022/11/07 04:08:19;;;;;;;0.87;0.63;;;;;;;;;;7384376;19;20487;-71
2022/11/07 04:10:44;;;;;;;0.30;0.30;;;;;;;;;;7382587;19;20130;-70
2022/11/07 04:18:37;;;;;;;0.20;0.20;;;;;;;;;;7386018;19;20201;-71
2022/11/07 04:21:03;;;;;;;0.30;0.30;;;;;;;;;;7383836;19;20113;-71
2022/11/07 04:23:28;;;;;;;0.30;0.30;;;;;;;;;;7383819;19;20185;-72
2022/11/07 04:28:37;;;;;;;0.40;0.40;;;;;;;;;;7383905;19;20123;-70
2022/11/07 04:31:03;;;;;;;0.30;0.30;;;;;;;;;;7384474;19;20579;-73
2022/11/07 04:33:28;;;;;;;0.30;0.30;;;;;;;;;;7377656;19;20124;-72
2022/11/07 04:35:53;;;;;;;0.20;0.20;;;;;;;;;;7379493;19;20185;-71
2022/11/07 04:38:19;;;;;;;0.30;0.30;;;;;;;;;;7386627;19;20125;-71
2022/11/07 04:40:44;;;;;;;0.20;0.20;;;;;;;;;;7380936;19;20101;-71
2022/11/07 04:43:09;;;;;;;0.30;0.30;;;;;;;;;;7385667;19;20125;-71
2022/11/07 04:45:36;;;;;;;0.30;0.30;;;;;;;;;;7381794;19;20161;-71
2022/11/07 04:48:02;;;;;;;0.33;0.33;;;;;;;;;;7384847;19;20128;-73
2022/11/07 04:50:27;;;;;;;0.50;0.50;;;;;;;;;;7373733;19;20587;-71
2022/11/07 04:52:52;;;;;;;0.67;0.63;;;;;;;;;;7376447;19;20362;-72
2022/11/07 04:55:21;;;;;;;0.37;0.37;;;;;;;;;;7377085;19;20495;-71
2022/11/07 04:57:47;;;;;;;0.30;0.30;;;;;;;;;;7384922;19;20132;-73
2022/11/07 05:00:13;;;;;;;0.57;0.57;;;;;;;;;;7384937;19;20109;-71
2022/11/07 05:02:38;;;;;;;0.30;0.30;;;;;;;;;;7381083;19;20522;-71
2022/11/07 05:05:04;;;;;;;0.27;0.27;;;;;;;;;;7381254;19;20525;-72
2022/11/07 05:07:29;;;;;;;0.50;0.50;;;;;;;;;;7382356;19;20138;-71
2022/11/07 05:09:54;;;;;;;0.20;0.20;;;;;;;;;;7386401;19;20108;-71
2022/11/07 05:12:20;;;;;;;0.30;0.30;;;;;;;;;;7385056;19;20145;-71
2022/11/07 05:14:45;;;;;;;0.20;0.20;;;;;;;;;;7385251;19;20113;-71
2022/11/07 05:17:14;;;;;;;0.40;0.40;;;;;;;;;;7381456;19;20378;-72
2022/11/07 05:19:42;;;;;;;0.30;0.30;;;;;;;;;;7384852;19;20150;-70
2022/11/07 05:24:51;;;;;;;0.20;0.20;;;;;;;;;;7382718;19;20519;-73
2022/11/07 05:27:17;;;;;;;0.20;0.20;;;;;;;;;;7382256;19;20125;-71
2022/11/07 05:29:43;;;;;;;0.67;0.67;;;;;;;;;;7385661;19;20151;-71
2022/11/07 05:32:08;;;;;;;0.30;0.30;;;;;;;;;;7371111;19;20131;-71
2022/11/07 05:34:33;;;;;;;0.67;0.67;;;;;;;;;;7373551;19;20113;-71
2022/11/07 05:36:59;;;;;;;0.30;0.30;;;;;;;;;;7372876;19;20125;-71
2022/11/07 05:39:24;;;;;;;0.30;0.30;;;;;;;;;;7378656;19;20109;-72
2022/11/07 05:41:49;;;;;;;0.50;0.50;;;;;;;;;;7381356;19;20109;-71
2022/11/07 05:44:14;;;;;;;0.20;0.20;;;;;;;;;;7379521;19;20112;-71
2022/11/07 05:46:40;;;;;;;0.20;0.20;;;;;;;;;;7379807;19;20532;-71
2022/11/07 05:49:05;;;;;;;0.20;0.20;;;;;;;;;;7381383;19;20486;-71
2022/11/07 05:51:30;;;;;;;0.20;0.20;;;;;;;;;;7378935;19;20406;-72
2022/11/07 05:53:56;;;;;;;0.20;0.20;;;;;;;;;;7379140;19;20529;-70
2022/11/07 05:56:21;;;;;;;0.30;0.30;;;;;;;;;;7374343;19;20584;-71
2022/11/07 05:58:46;;;;;;;0.20;0.20;;;;;;;;;;7382057;19;20107;-70
2022/11/07 06:01:11;;;;;;;0.23;0.23;;;;;;;;;;7380226;19;20125;-70
2022/11/07 06:03:37;;;;;;;0.30;0.30;;;;;;;;;;7383299;19;20575;-71
2022/11/07 06:06:02;;;;;;;0.30;0.30;;;;;;;;;;7379984;19;20156;-72
2022/11/07 06:08:27;;;;;;;0.30;0.30;;;;;;;;;;7380474;19;20134;-70
2022/11/07 06:10:53;;;;;;;0.30;0.30;;;;;;;;;;7380442;19;20101;-73
2022/11/07 06:13:18;;;;;;;0.20;0.20;;;;;;;;;;7383432;19;20128;-72
2022/11/07 06:15:44;;;;;;;0.20;0.20;;;;;;;;;;7368702;19;20456;-71
2022/11/07 06:18:19;;;;;;;0.30;0.30;;;;;;;;;;7377940;19;20457;-72
2022/11/07 06:20:45;;;;;;;0.33;0.33;;;;;;;;;;7381204;19;20105;-71
2022/11/07 06:23:11;;;;;;;0.20;0.20;;;;;;;;;;7378021;19;20503;-73
2022/11/07 06:25:36;;;;;;;0.30;0.30;;;;;;;;;;7379655;19;20122;-71
2022/11/07 06:28:04;;;;;;;0.20;0.20;;;;;;;;;;7380489;19;20197;-71
2022/11/07 06:30:30;;;;;;;0.30;0.30;;;;;;;;;;7381416;19;20575;-71
2022/11/07 06:32:59;;;;;;;0.30;0.30;;;;;;;;;;7378384;19;20166;-71
2022/11/07 06:35:24;;;;;;;0.30;0.30;;;;;;;;;;7380132;19;20129;-71
2022/11/07 06:37:50;;;;;;;0.40;0.40;;;;;;;;;;7375059;19;20821;-72
2022/11/07 06:40:15;;;;;;;0.20;0.20;;;;;;;;;;7374435;19;20137;-72
2022/11/07 06:42:40;;;;;;;0.30;0.30;;;;;;;;;;7374748;19;20105;-71
2022/11/07 06:45:06;;;;;;;0.30;0.30;;;;;;;;;;7372064;19;20174;-71
2022/11/07 06:47:31;;;;;;;0.20;0.20;;;;;;;;;;7377543;19;20117;-71
2022/11/07 06:49:57;;;;;;;0.50;0.50;;;;;;;;;;7376220;19;20583;-71
2022/11/07 06:52:22;;;;;;;2.63;0.50;;;;;;;;;;7382507;19;20125;-72
2022/11/07 06:54:47;;;;;;;0.30;0.30;;;;;;;;;;7382058;19;20121;-71
2022/11/07 06:57:12;;;;;;;0.20;0.20;;;;;;;;;;7378806;19;20678;-72
2022/11/07 06:59:38;;;;;;;0.30;0.30;;;;;;;;;;7376474;19;20121;-70
2022/11/07 07:02:03;;;;;;;0.20;0.20;;;;;;;;;;7377082;19;20141;-72
2022/11/07 07:04:28;;;;;;;0.30;0.30;;;;;;;;;;7375915;19;20125;-71
2022/11/07 07:06:54;;;;;;;0.33;0.33;;;;;;;;;;7375403;19;20180;-72
2022/11/07 07:09:19;;;;;;;0.20;0.20;;;;;;;;;;7375037;19;20452;-71
2022/11/07 07:11:44;;;;;;;0.20;0.20;;;;;;;;;;7381530;19;20120;-71
2022/11/07 07:14:10;;;;;;;0.57;0.57;;;;;;;;;;7375787;19;20117;-73
2022/11/07 07:16:36;;;;;;;0.40;0.40;;;;;;;;;;7375286;19;20141;-70
2022/11/07 07:19:01;;;;;;;0.30;0.30;;;;;;;;;;7381060;19;20188;-70
2022/11/07 07:21:27;;;;;;;0.40;0.40;;;;;;;;;;7379755;19;20595;-71
2022/11/07 07:23:52;;;;;;;0.37;0.37;;;;;;;;;;7380616;19;20113;-71
2022/11/07 07:26:17;;;;;;;0.20;0.20;;;;;;;;;;7373875;19;20612;-71
2022/11/07 07:28:43;;;;;;;0.20;0.20;;;;;;;;;;7378974;19;20120;-72
2022/11/07 07:31:14;;;;;;;0.27;0.27;;;;;;;;;;7378707;19;20144;-72
2022/11/07 07:33:40;;;;;;;0.23;0.23;;;;;;;;;;7376758;19;20129;-71
2022/11/07 07:36:06;;;;;;;0.30;0.30;;;;;;;;;;7379349;19;20558;-70
2022/11/07 07:38:32;;;;;;;0.23;0.23;;;;;;;;;;7381019;19;20129;-72
2022/11/07 07:40:57;;;;;;;0.20;0.20;;;;;;;;;;7378380;19;20483;-71
2022/11/07 07:43:23;;;;;;;0.20;0.20;;;;;;;;;;7377781;19;20128;-71
2022/11/07 07:45:48;;;;;;;0.20;0.20;;;;;;;;;;7377287;19;20138;-72
2022/11/07 07:48:14;;;;;;;0.20;0.20;;;;;;;;;;7381565;19;20112;-71
2022/11/07 07:50:39;;;;;;;0.20;0.20;;;;;;;;;;7376671;19;20122;-71
2022/11/07 07:53:04;;;;;;;0.20;0.20;;;;;;;;;;7379852;19;20121;-71
2022/11/07 07:55:29;;;;;;;0.20;0.20;;;;;;;;;;7373713;19;20630;-72
2022/11/07 07:57:55;;;;;;;0.20;0.20;;;;;;;;;;7379754;19;20109;-71
2022/11/07 08:00:20;;;;;;;0.30;0.30;;;;;;;;;;7371727;19;20123;-71
2022/11/07 08:02:45;;;;;;;0.30;0.30;;;;;;;;;;7375341;19;20443;-73
2022/11/07 08:05:12;;;;;;;0.30;0.30;;;;;;;;;;7376848;19;20631;-71
2022/11/07 08:07:48;;;;;;;0.20;0.20;;;;;;;;;;7378285;19;20134;-71
2022/11/07 08:10:14;;;;;;;1.60;0.60;;;;;;;;;;7372462;19;20164;-73
2022/11/07 08:12:43;;;;;;;0.30;0.30;;;;;;;;;;7375239;19;20146;-72
2022/11/07 08:15:10;;;;;;;0.30;0.30;;;;;;;;;;7377657;19;20164;-74
2022/11/07 08:17:35;;;;;;;0.20;0.20;;;;;;;;;;7384391;19;20446;-72
2022/11/07 08:20:00;;;;;;;0.30;0.30;;;;;;;;;;7387184;19;20117;-72
2022/11/07 08:22:25;;;;;;;0.30;0.30;;;;;;;;;;7383231;19;20241;-72
2022/11/07 08:24:51;;;;;;;0.20;0.20;;;;;;;;;;7382850;19;20580;-74
2022/11/07 08:27:16;;;;;;;0.30;0.30;;;;;;;;;;7385050;19;20112;-73
2022/11/07 08:29:41;;;;;;;0.20;0.20;;;;;;;;;;7383958;19;20125;-72
2022/11/07 08:32:07;;;;;;;0.20;0.20;;;;;;;;;;7374052;19;20863;-73
2022/11/07 08:34:32;;;;;;;0.30;0.30;;;;;;;;;;7377850;19;20496;-75
2022/11/07 08:36:57;;;;;;;0.20;0.20;;;;;;;;;;7382382;19;20138;-72
2022/11/07 08:39:22;;;;;;;0.30;0.30;;;;;;;;;;7388910;19;20109;-73
2022/11/07 08:41:48;;;;;;;0.30;0.30;;;;;;;;;;7380536;19;20129;-72
2022/11/07 08:44:13;;;;;;;0.30;0.30;;;;;;;;;;7383218;19;20128;-74
2022/11/07 08:46:38;;;;;;;0.20;0.20;;;;;;;;;;7375295;19;20588;-72
2022/11/07 08:49:04;;;;;;;0.20;0.20;;;;;;;;;;7383470;19;20140;-72
2022/11/07 08:51:29;;;;;;;0.30;0.30;;;;;;;;;;7385293;19;20138;-74
2022/11/07 08:53:54;;;;;;;0.30;0.30;;;;;;;;;;7381607;19;20142;-72
2022/11/07 08:56:19;;;;;;;0.30;0.30;;;;;;;;;;7384232;19;20122;-73
2022/11/07 08:58:45;;;;;;;0.30;0.30;;;;;;;;;;7383345;19;20132;-72
2022/11/07 09:01:10;;;;;;;0.30;0.30;;;;;;;;;;7382454;19;20588;-72
2022/11/07 09:03:36;;;;;;;0.30;0.30;;;;;;;;;;7381623;19;20138;-72
2022/11/07 09:06:03;;;;;;;0.20;0.20;;;;;;;;;;7379988;19;20543;-74
2022/11/07 09:08:29;;;;;;;0.30;0.30;;;;;;;;;;7384841;19;20115;-74
2022/11/07 09:10:54;;;;;;;0.40;0.40;;;;;;;;;;7380405;19;20172;-72
2022/11/07 09:13:20;;;;;;;1.13;0.70;;;;;;;;;;7385249;19;20131;-72
2022/11/07 09:15:45;;;;;;;0.20;0.20;;;;;;;;;;7384472;19;20134;-72
2022/11/07 09:18:10;;;;;;;0.30;0.30;;;;;;;;;;7383554;19;20142;-74
2022/11/07 09:20:36;;;;;;;0.20;0.20;;;;;;;;;;7381525;19;20105;-75
2022/11/07 09:23:01;;;;;;;0.30;0.30;;;;;;;;;;7383011;19;20112;-73
2022/11/07 09:25:27;;;;;;;0.30;0.30;;;;;;;;;;7378057;19;20157;-72
2022/11/07 09:27:53;;;;;;;0.30;0.30;;;;;;;;;;7378199;19;20129;-72
2022/11/07 09:30:19;;;;;;;0.70;0.70;;;;;;;;;;7370989;19;20201;-73
2022/11/07 09:32:44;;;;;;;0.20;0.20;;;;;;;;;;7380835;19;20106;-72
2022/11/07 09:35:10;;;;;;;0.30;0.30;;;;;;;;;;7379487;19;20125;-74
2022/11/07 09:37:41;;;;;;;0.30;0.30;;;;;;;;;;7382400;19;20105;-72
2022/11/07 09:40:23;;;;;;;0.30;0.30;;;;;;;;;;7382261;19;20133;-72
2022/11/07 09:42:51;;;;;;;0.20;0.20;;;;;;;;;;7380721;19;20296;-73
2022/11/07 09:45:17;;;;;;;0.30;0.30;;;;;;;;;;7383135;19;20129;-72
2022/11/07 09:47:44;;;;;;;0.30;0.30;;;;;;;;;;7382082;19;20151;-74
2022/11/07 09:50:17;;;;;;;0.30;0.30;;;;;;;;;;7381820;19;20144;-72
2022/11/07 09:52:50;;;;;;;0.30;0.30;;;;;;;;;;7381479;19;20129;-73
2022/11/07 09:55:18;;;;;;;0.40;0.40;;;;;;;;;;7377106;19;20153;-73
2022/11/07 09:57:44;;;;;;;0.38;0.38;;;;;;;;;;7381020;19;20125;-75
2022/11/07 10:00:17;;;;;;;0.20;0.20;;;;;;;;;;7380934;19;20537;-73
2022/11/07 10:02:47;;;;;;;0.28;0.28;;;;;;;;;;7377009;19;20457;-75
2022/11/07 10:05:17;;;;;;;0.20;0.20;;;;;;;;;;7377560;19;20551;-74
2022/11/07 10:07:52;;;;;;;0.57;0.57;;;;;;;;;;7379512;19;20106;-72
2022/11/07 10:10:35;;;;;;;0.50;0.50;;;;;;;;;;7378789;19;20154;-73
2022/11/07 10:13:33;;;;;;;0.30;0.30;;;;;;;;;;7383240;19;20181;-73
2022/11/07 10:16:19;;;;;;;0.30;0.30;;;;;;;;;;7380296;19;20161;-73
2022/11/07 10:18:58;;;;;;;0.30;0.30;;;;;;;;;;7381448;19;20117;-73
2022/11/07 10:21:26;;;;;;;0.38;0.38;;;;;;;;;;7381616;19;20417;-73
2022/11/07 10:24:31;;;;;;;0.20;0.20;;;;;;;;;;7381606;19;20353;-72
2022/11/07 10:26:57;;;;;;;0.30;0.30;;;;;;;;;;7374024;19;20141;-75
2022/11/07 10:29:27;;;;;;;0.20;0.20;;;;;;;;;;7377937;19;20125;-75
2022/11/07 10:32:22;;;;;;;0.30;0.30;;;;;;;;;;7371071;19;20135;-74
2022/11/07 10:34:57;;;;;;;0.30;0.30;;;;;;;;;;7377871;19;20137;-73
2022/11/07 10:37:22;;;;;;;0.25;0.25;;;;;;;;;;7369864;19;20153;-73
2022/11/07 10:39:47;;;;;;;0.20;0.20;;;;;;;;;;7377902;19;20101;-72
2022/11/07 10:42:17;;;;;;;0.50;0.40;;;;;;;;;;7379539;19;20212;-73
2022/11/07 10:44:42;;;;;;;0.20;0.20;;;;;;;;;;7377265;19;20487;-72
2022/11/07 10:47:23;;;;;;;0.30;0.30;;;;;;;;;;7369357;19;20125;-72
2022/11/07 10:50:00;;;;;;;0.30;0.30;;;;;;;;;;7361923;19;20220;-73
2022/11/07 10:52:26;;;;;;;0.30;0.30;;;;;;;;;;7366701;19;20197;-73
2022/11/07 10:55:05;;;;;;;0.30;0.30;;;;;;;;;;7368916;19;20176;-72
2022/11/07 10:57:33;;;;;;;0.30;0.30;;;;;;;;;;7369984;19;20131;-73
2022/11/07 10:59:58;;;;;;;0.30;0.30;;;;;;;;;;7380392;19;20144;-72
2022/11/07 11:02:47;;;;;;;0.30;0.30;;;;;;;;;;7376742;19;20101;-72
2022/11/07 11:05:31;;;;;;;0.30;0.30;;;;;;;;;;7381375;19;20125;-72
2022/11/07 11:08:16;;;;;;;0.65;0.65;;;;;;;;;;7380795;19;20539;-72
2022/11/07 11:10:42;;;;;;;0.30;0.30;;;;;;;;;;7383716;19;20184;-71
2022/11/07 11:13:24;;;;;;;0.30;0.30;;;;;;;;;;7381734;19;20109;-72
2022/11/07 11:15:50;;;;;;;0.30;0.30;;;;;;;;;;7381004;19;20121;-71
2022/11/07 11:18:16;;;;;;;0.30;0.30;;;;;;;;;;7381994;19;20157;-71
2022/11/07 11:20:43;;;;;;;0.30;0.30;;;;;;;;;;7379881;19;20602;-71
2022/11/07 11:23:20;;;;;;;0.30;0.30;;;;;;;;;;7377568;19;20114;-71
2022/11/07 11:25:47;;;;;;;0.30;0.30;;;;;;;;;;7378052;19;20128;-74
2022/11/07 11:28:33;;;;;;;0.30;0.30;;;;;;;;;;7373665;19;20163;-71
2022/11/07 11:31:05;;;;;;;0.30;0.30;;;;;;;;;;7378272;19;20668;-71
2022/11/07 11:33:39;;;;;;;0.30;0.30;;;;;;;;;;7379224;19;20105;-73
2022/11/07 11:36:18;;;;;;;0.47;0.47;;;;;;;;;;7376895;19;20602;-71
2022/11/07 11:38:45;;;;;;;0.40;0.40;;;;;;;;;;7379702;19;20722;-71
2022/11/07 11:41:49;;;;;;;0.30;0.30;;;;;;;;;;7373634;19;20122;-74
2022/11/07 11:44:28;;;;;;;0.30;0.30;;;;;;;;;;7376367;19;20113;-72
2022/11/07 11:46:58;;;;;;;0.30;0.30;;;;;;;;;;7375848;19;20121;-71
2022/11/07 11:50:03;;;;;;;0.30;0.30;;;;;;;;;;7383943;19;20635;-73
2022/11/07 11:52:30;;;;;;;0.30;0.30;;;;;;;;;;7384603;19;20627;-72
2022/11/07 11:54:56;;;;;;;0.30;0.30;;;;;;;;;;7384440;19;20145;-72
2022/11/07 11:57:41;;;;;;;0.30;0.30;;;;;;;;;;7388691;19;20591;-71
2022/11/07 12:00:17;;;;;;;0.35;0.35;;;;;;;;;;7386750;19;20510;-73
2022/11/07 12:03:02;;;;;;;0.30;0.30;;;;;;;;;;7383305;19;20120;-74
2022/11/07 12:05:55;;;;;;;0.30;0.30;;;;;;;;;;7385436;19;20514;-71
2022/11/07 12:08:30;;;;;;;0.20;0.20;;;;;;;;;;7386522;19;20480;-72
2022/11/07 12:11:09;;;;;;;0.20;0.20;;;;;;;;;;7384587;19;20134;-72
2022/11/07 12:13:50;;;;;;;0.30;0.30;;;;;;;;;;7388717;19;20113;-72
2022/11/07 12:16:34;;;;;;;0.30;0.30;;;;;;;;;;7382186;19;20518;-72
2022/11/07 12:18:59;;;;;;;0.32;0.32;;;;;;;;;;7385803;19;20113;-72
2022/11/07 12:21:43;;;;;;;0.30;0.30;;;;;;;;;;7380885;19;20155;-74
2022/11/07 12:24:31;;;;;;;0.20;0.20;;;;;;;;;;7382558;19;20188;-73
2022/11/07 12:27:02;;;;;;;0.30;0.30;;;;;;;;;;7379925;19;20148;-73
2022/11/07 12:29:42;;;;;;;0.30;0.30;;;;;;;;;;7389715;19;20483;-72
2022/11/07 12:32:14;;;;;;;0.30;0.30;;;;;;;;;;7388690;19;20108;-72
2022/11/07 12:34:54;;;;;;;3.40;0.63;;;;;;;;;;7386370;19;20201;-73
2022/11/07 12:37:47;;;;;;;0.30;0.30;;;;;;;;;;7384361;19;20120;-72
2022/11/07 12:40:13;;;;;;;0.47;0.47;;;;;;;;;;7382785;19;20105;-72
2022/11/07 12:43:19;;;;;;;0.30;0.30;;;;;;;;;;7383175;19;20133;-72
2022/11/07 12:45:59;;;;;;;0.30;0.30;;;;;;;;;;7384303;19;20129;-73
2022/11/07 12:48:55;;;;;;;0.30;0.30;;;;;;;;;;7387904;19;20117;-72
2022/11/07 12:51:27;;;;;;;0.30;0.30;;;;;;;;;;7385570;19;20126;-73
2022/11/07 12:54:05;;;;;;;0.30;0.30;;;;;;;;;;7384240;19;20109;-74
2022/11/07 12:56:34;;;;;;;0.30;0.30;;;;;;;;;;7381273;19;20152;-72
2022/11/07 12:59:05;;;;;;;0.40;0.40;;;;;;;;;;7380007;19;20128;-72
2022/11/07 13:01:40;;;;;;;0.30;0.30;;;;;;;;;;7377277;19;20124;-72
2022/11/07 13:04:10;;;;;;;0.30;0.30;;;;;;;;;;7386361;19;20116;-72
2022/11/07 13:06:41;;;;;;;0.30;0.30;;;;;;;;;;7385014;19;20121;-72
2022/11/07 13:09:30;;;;;;;0.30;0.30;;;;;;;;;;7386032;19;20124;-72
2022/11/07 13:12:25;;;;;;;0.30;0.30;;;;;;;;;;7385313;19;20464;-73
2022/11/07 13:14:50;;;;;;;0.50;0.50;;;;;;;;;;7383020;19;20536;-72
2022/11/07 13:17:23;;;;;;;0.50;0.50;;;;;;;;;;7378388;19;20122;-72
2022/11/07 13:20:19;;;;;;;0.40;0.40;;;;;;;;;;7379738;19;20627;-75
2022/11/07 13:22:45;;;;;;;0.30;0.30;;;;;;;;;;7382063;19;20110;-74
2022/11/07 13:25:11;;;;;;;0.30;0.30;;;;;;;;;;7385682;19;20149;-74
2022/11/07 13:27:59;;;;;;;0.30;0.30;;;;;;;;;;7387266;19;20102;-72
2022/11/07 13:30:38;;;;;;;0.20;0.20;;;;;;;;;;7380945;19;20215;-74
2022/11/07 13:33:05;;;;;;;0.30;0.30;;;;;;;;;;7372229;19;20445;-75
2022/11/07 13:35:31;;;;;;;0.75;0.75;;;;;;;;;;7373607;19;20121;-72
2022/11/07 13:38:10;;;;;;;0.30;0.30;;;;;;;;;;7373142;19;20118;-71
2022/11/07 13:40:43;;;;;;;0.30;0.30;;;;;;;;;;7377483;19;20113;-73
2022/11/07 13:43:37;;;;;;;0.43;0.43;;;;;;;;;;7367641;19;20530;-72
2022/11/07 13:46:07;;;;;;;0.30;0.30;;;;;;;;;;7369558;19;20129;-76
2022/11/07 13:48:47;;;;;;;0.30;0.30;;;;;;;;;;7376123;19;20468;-73
2022/11/07 13:51:23;;;;;;;0.20;0.20;;;;;;;;;;7380027;19;20113;-72
2022/11/07 13:54:12;;;;;;;0.30;0.30;;;;;;;;;;7376351;19;20242;-73
2022/11/07 13:56:52;;;;;;;0.30;0.30;;;;;;;;;;7374439;19;20171;-73
2022/11/07 13:59:38;;;;;;;0.30;0.30;;;;;;;;;;7380649;19;20113;-72
2022/11/07 14:02:04;;;;;;;0.30;0.30;;;;;;;;;;7368887;19;20121;-75
2022/11/07 14:04:29;;;;;;;0.63;0.63;;;;;;;;;;7377619;19;20117;-71
2022/11/07 14:06:56;;;;;;;0.20;0.20;;;;;;;;;;7373980;19;20160;-72
2022/11/07 14:09:22;;;;;;;0.30;0.30;;;;;;;;;;7368814;19;20132;-73
2022/11/07 14:11:50;;;;;;;0.30;0.30;;;;;;;;;;7375007;19;20109;-72
2022/11/07 14:14:16;;;;;;;0.30;0.30;;;;;;;;;;7379423;19;20117;-71
2022/11/07 14:16:44;;;;;;;0.30;0.30;;;;;;;;;;7368295;19;20212;-72
2022/11/07 14:19:17;;;;;;;0.30;0.30;;;;;;;;;;7376504;19;20116;-74
2022/11/07 14:21:45;;;;;;;0.20;0.20;;;;;;;;;;7375835;19;20132;-72
2022/11/07 14:24:24;;;;;;;0.20;0.20;;;;;;;;;;7375175;19;20140;-70
2022/11/07 14:27:00;;;;;;;0.30;0.30;;;;;;;;;;7379812;19;20136;-72
2022/11/07 14:29:26;;;;;;;0.30;0.30;;;;;;;;;;7381214;19;20547;-71
2022/11/07 14:31:51;;;;;;;0.30;0.30;;;;;;;;;;7375394;19;20116;-72
2022/11/07 14:34:19;;;;;;;0.30;0.30;;;;;;;;;;7379179;19;20121;-71
2022/11/07 14:36:54;;;;;;;0.30;0.30;;;;;;;;;;7382336;19;20658;-72
2022/11/07 14:39:21;;;;;;;0.30;0.30;;;;;;;;;;7384215;19;20109;-72
2022/11/07 14:41:47;;;;;;;0.30;0.30;;;;;;;;;;7381977;19;20117;-70
2022/11/07 14:44:15;;;;;;;0.30;0.30;;;;;;;;;;7377533;19;20116;-71
2022/11/07 14:46:40;;;;;;;0.30;0.30;;;;;;;;;;7372157;19;20150;-72
2022/11/07 14:49:16;;;;;;;0.30;0.30;;;;;;;;;;7376927;19;20109;-74
2022/11/07 14:51:42;;;;;;;0.30;0.30;;;;;;;;;;7372988;19;20108;-75
2022/11/07 14:54:16;;;;;;;0.30;0.30;;;;;;;;;;7371489;19;20133;-71
2022/11/07 14:56:44;;;;;;;0.30;0.30;;;;;;;;;;7378219;19;20618;-71
2022/11/07 14:59:15;;;;;;;0.20;0.20;;;;;;;;;;7365833;19;20168;-71
2022/11/07 15:02:15;;;;;;;0.30;0.30;;;;;;;;;;7368704;19;20192;-71
2022/11/07 15:04:43;;;;;;;0.30;0.30;;;;;;;;;;7375585;19;20251;-74
2022/11/07 15:07:27;;;;;;;0.50;0.50;;;;;;;;;;7371639;19;20105;-74